Time;durP1;ratioP1;P1;durP2;ratioP2;P2;SDS_P1;SDS_P2;PMS_P1;PMS_P2;Temp;Humidity;BMP_temperature;BMP_pressure;BME280_temperature;BME280_humidity;BME280_pressure;Samples;Min_cycle;Max_cycle;Signal;HPM_P1;HPM_P2
2023/07/19 00:01:42;;;;;;;2.13;0.90;;;24.00;1.00;;;;;;4846412;29;20057;-45
2023/07/19 00:04:09;;;;;;;1.70;0.55;;;23.90;1.00;;;;;;4861525;29;20046;-45
2023/07/19 00:06:36;;;;;;;2.13;0.77;;;23.90;1.00;;;;;;4861683;29;20080;-45
2023/07/19 00:09:03;;;;;;;2.58;0.93;;;23.90;1.00;;;;;;4861578;29;20037;-45
2023/07/19 00:11:30;;;;;;;3.33;1.10;;;23.90;1.00;;;;;;4861505;29;20049;-47
2023/07/19 00:13:57;;;;;;;3.65;0.65;;;24.00;1.00;;;;;;4861354;29;20041;-48
2023/07/19 00:16:24;;;;;;;1.80;0.70;;;23.90;1.00;;;;;;4861354;29;20124;-44
2023/07/19 00:18:50;;;;;;;3.10;0.95;;;23.90;1.00;;;;;;4861685;29;20045;-46
2023/07/19 00:21:25;;;;;;;2.80;0.50;;;23.90;1.00;;;;;;4861337;29;20081;-45
2023/07/19 00:23:52;;;;;;;3.33;0.93;;;23.90;1.00;;;;;;4859721;29;20520;-46
2023/07/19 00:26:19;;;;;;;2.25;0.55;;;23.90;1.00;;;;;;4861429;29;20044;-46
2023/07/19 00:28:46;;;;;;;2.40;0.55;;;23.90;1.00;;;;;;4861263;29;20444;-46
2023/07/19 00:31:13;;;;;;;2.65;1.77;;;23.90;1.00;;;;;;4860458;29;20069;-47
2023/07/19 00:33:40;;;;;;;2.70;1.00;;;23.90;1.00;;;;;;4862165;29;20477;-45
2023/07/19 00:36:07;;;;;;;3.20;0.75;;;23.90;1.00;;;;;;4856578;29;20046;-47
2023/07/19 00:38:35;;;;;;;2.13;1.23;;;23.90;1.00;;;;;;4846222;29;20470;-46
2023/07/19 00:41:01;;;;;;;2.85;1.08;;;23.90;1.00;;;;;;4860326;29;20056;-45
2023/07/19 00:43:29;;;;;;;2.35;0.80;;;23.90;1.00;;;;;;4858570;29;20041;-46
2023/07/19 00:45:56;;;;;;;1.58;0.85;;;23.90;1.00;;;;;;4860068;29;20133;-46
2023/07/19 00:48:24;;;;;;;3.60;1.23;;;23.90;1.00;;;;;;4861064;29;20049;-45
2023/07/19 00:50:53;;;;;;;1.77;0.55;;;23.90;1.00;;;;;;4844604;29;20148;-45
2023/07/19 00:53:21;;;;;;;3.03;0.85;;;23.90;1.00;;;;;;4844085;29;20053;-45
2023/07/19 00:55:50;;;;;;;2.83;0.77;;;23.90;1.00;;;;;;4857427;29;20045;-45
2023/07/19 00:58:18;;;;;;;2.67;0.77;;;23.90;1.00;;;;;;4840592;29;20132;-45
2023/07/19 01:00:46;;;;;;;1.85;0.70;;;23.90;1.00;;;;;;4860524;29;20069;-43
2023/07/19 01:03:13;;;;;;;2.95;0.75;;;23.90;1.00;;;;;;4860411;29;20144;-47
2023/07/19 01:05:41;;;;;;;3.05;1.15;;;23.80;1.00;;;;;;4859549;29;20322;-46
2023/07/19 01:08:08;;;;;;;2.25;0.93;;;23.80;1.00;;;;;;4859509;29;20057;-46
2023/07/19 01:10:34;;;;;;;3.80;0.70;;;23.80;1.00;;;;;;4859361;29;20045;-45
2023/07/19 01:13:09;;;;;;;0.80;0.50;;;23.80;1.00;;;;;;4860351;29;20079;-45
2023/07/19 01:15:37;;;;;;;1.90;0.60;;;23.90;1.00;;;;;;4859527;29;20053;-45
2023/07/19 01:18:04;;;;;;;2.55;0.50;;;23.80;1.00;;;;;;4843941;29;20140;-44
2023/07/19 01:20:31;;;;;;;1.80;0.63;;;23.80;1.00;;;;;;4859724;29;20053;-43
2023/07/19 01:22:59;;;;;;;3.65;1.35;;;23.80;1.00;;;;;;4858991;29;20516;-43
2023/07/19 01:25:26;;;;;;;1.40;0.68;;;23.80;1.00;;;;;;4860450;29;20053;-45
2023/07/19 01:27:53;;;;;;;1.58;0.50;;;23.80;1.00;;;;;;4859558;29;20061;-44
2023/07/19 01:30:20;;;;;;;1.55;1.13;;;23.80;1.00;;;;;;4844256;29;20125;-44
2023/07/19 01:32:47;;;;;;;3.00;0.70;;;23.80;1.00;;;;;;4860249;29;20422;-46
2023/07/19 01:35:14;;;;;;;2.15;0.90;;;23.80;1.00;;;;;;4860773;29;20510;-44
2023/07/19 01:37:41;;;;;;;1.38;0.98;;;23.80;1.00;;;;;;4860784;29;20402;-43
2023/07/19 01:40:11;;;;;;;2.22;0.70;;;23.80;1.00;;;;;;4859545;29;20114;-44
2023/07/19 01:42:39;;;;;;;1.73;0.57;;;23.80;1.00;;;;;;4843664;29;20045;-44
2023/07/19 01:45:07;;;;;;;2.38;0.43;;;23.80;1.00;;;;;;4860519;29;20351;-43
2023/07/19 01:47:34;;;;;;;1.70;0.70;;;23.80;1.00;;;;;;4859588;29;20498;-44
2023/07/19 01:50:02;;;;;;;3.05;0.75;;;23.80;1.00;;;;;;4844138;29;20575;-43
2023/07/19 01:52:29;;;;;;;1.10;0.47;;;23.80;1.00;;;;;;4858883;29;20578;-43
2023/07/19 01:54:56;;;;;;;1.02;0.52;;;23.80;1.00;;;;;;4860256;29;20058;-44
2023/07/19 01:57:24;;;;;;;1.05;0.50;;;23.80;1.00;;;;;;4860351;29;20084;-43
2023/07/19 01:59:51;;;;;;;4.15;0.75;;;23.80;1.00;;;;;;4859262;29;20135;-47
2023/07/19 02:02:18;;;;;;;2.35;0.98;;;23.80;1.00;;;;;;4858448;29;20097;-45
2023/07/19 02:04:46;;;;;;;1.48;0.57;;;23.80;1.00;;;;;;4858678;29;20488;-46
2023/07/19 02:07:13;;;;;;;3.05;0.90;;;23.80;1.00;;;;;;4860192;29;20042;-44
2023/07/19 02:09:40;;;;;;;1.25;0.50;;;23.80;1.00;;;;;;4860218;29;20051;-47
2023/07/19 02:12:07;;;;;;;1.58;0.77;;;23.80;1.00;;;;;;4858653;29;20223;-45
2023/07/19 02:14:35;;;;;;;1.80;0.68;;;23.80;1.00;;;;;;4846548;29;20064;-44
2023/07/19 02:17:03;;;;;;;1.73;1.17;;;23.80;1.00;;;;;;4846701;29;20055;-43
2023/07/19 02:19:30;;;;;;;2.60;0.70;;;23.80;1.00;;;;;;4862547;29;20418;-44
2023/07/19 02:21:57;;;;;;;1.02;0.60;;;23.80;1.00;;;;;;4863890;29;20497;-43
2023/07/19 02:24:24;;;;;;;1.67;0.85;;;23.70;1.00;;;;;;4846665;29;20052;-43
2023/07/19 02:26:51;;;;;;;1.55;0.57;;;23.70;1.00;;;;;;4855061;29;20541;-44
2023/07/19 02:29:17;;;;;;;2.70;0.65;;;23.70;1.00;;;;;;4863579;29;20159;-43
2023/07/19 02:31:44;;;;;;;1.55;0.88;;;23.80;1.00;;;;;;4863839;29;20106;-44
2023/07/19 02:34:13;;;;;;;2.10;1.02;;;23.70;1.00;;;;;;4863646;29;20072;-44
2023/07/19 02:36:41;;;;;;;1.42;0.45;;;23.70;1.00;;;;;;4863920;29;20080;-43
2023/07/19 02:39:08;;;;;;;2.13;0.60;;;23.70;1.00;;;;;;4862644;29;20399;-43
2023/07/19 02:41:37;;;;;;;1.67;0.55;;;23.70;1.00;;;;;;4863423;29;20042;-44
2023/07/19 02:44:07;;;;;;;1.23;0.55;;;23.70;1.00;;;;;;4862971;29;20405;-44
2023/07/19 02:46:34;;;;;;;2.70;0.35;;;23.70;1.00;;;;;;4861958;29;20053;-43
2023/07/19 02:49:01;;;;;;;1.10;0.28;;;23.70;1.00;;;;;;4853751;29;20048;-43
2023/07/19 02:51:28;;;;;;;2.55;0.65;;;23.70;1.00;;;;;;4863345;29;20072;-43
2023/07/19 02:53:54;;;;;;;2.70;0.90;;;23.70;1.00;;;;;;4862956;29;20115;-43
2023/07/19 02:56:21;;;;;;;2.47;0.70;;;23.70;1.00;;;;;;4863243;29;20046;-44
2023/07/19 02:58:48;;;;;;;2.45;0.73;;;23.70;1.00;;;;;;4862032;29;20052;-44
2023/07/19 03:01:15;;;;;;;1.35;0.55;;;23.70;1.00;;;;;;4862101;29;20046;-43
2023/07/19 03:03:42;;;;;;;2.35;0.75;;;23.70;1.00;;;;;;4862864;29;20078;-43
2023/07/19 03:06:10;;;;;;;1.63;0.73;;;23.70;1.00;;;;;;4857908;29;20046;-43
2023/07/19 03:08:37;;;;;;;1.60;0.50;;;23.70;1.00;;;;;;4862781;29;20053;-43
2023/07/19 03:11:06;;;;;;;1.80;0.55;;;23.70;1.00;;;;;;4865661;29;20433;-43
2023/07/19 03:13:33;;;;;;;1.02;0.30;;;23.70;1.00;;;;;;4864582;29;20089;-43
2023/07/19 03:15:59;;;;;;;2.80;0.60;;;23.60;1.00;;;;;;4862342;29;20068;-45
2023/07/19 03:18:26;;;;;;;1.05;0.40;;;23.60;1.00;;;;;;4861250;29;20132;-44
2023/07/19 03:21:01;;;;;;;2.33;0.50;;;23.70;1.00;;;;;;4860948;29;20121;-44
2023/07/19 03:23:30;;;;;;;1.42;0.63;;;23.60;1.00;;;;;;4860627;29;20054;-44
2023/07/19 03:25:58;;;;;;;2.17;0.77;;;23.70;1.00;;;;;;4845418;29;20046;-43
2023/07/19 03:28:27;;;;;;;0.90;0.50;;;23.60;1.00;;;;;;4845858;29;20045;-45
2023/07/19 03:30:55;;;;;;;1.00;0.43;;;23.70;1.00;;;;;;4844850;29;20529;-45
2023/07/19 03:33:23;;;;;;;1.15;0.50;;;23.60;1.00;;;;;;4845332;29;20562;-43
2023/07/19 03:35:51;;;;;;;1.15;0.55;;;23.60;1.00;;;;;;4862200;29;20140;-43
2023/07/19 03:38:19;;;;;;;1.00;0.35;;;23.60;1.00;;;;;;4862028;29;20492;-43
2023/07/19 03:40:48;;;;;;;2.10;0.43;;;23.60;1.00;;;;;;4837604;29;20073;-43
2023/07/19 03:43:15;;;;;;;1.63;0.57;;;23.60;1.00;;;;;;4860229;29;20524;-45
2023/07/19 03:45:42;;;;;;;2.35;0.55;;;23.60;1.00;;;;;;4860543;29;20089;-44
2023/07/19 03:48:09;;;;;;;2.05;0.50;;;23.60;1.00;;;;;;4860484;29;20054;-44
2023/07/19 03:50:36;;;;;;;1.20;0.50;;;23.60;1.00;;;;;;4860590;29;20045;-44
2023/07/19 03:53:04;;;;;;;1.15;0.60;;;23.60;1.00;;;;;;4859973;29;20464;-44
2023/07/19 03:55:32;;;;;;;1.92;0.60;;;23.60;1.00;;;;;;4860562;29;20053;-43
2023/07/19 03:58:01;;;;;;;1.45;0.73;;;23.60;1.00;;;;;;4860345;29;20101;-43
2023/07/19 04:00:28;;;;;;;1.52;1.00;;;23.60;1.00;;;;;;4860326;29;20416;-43
2023/07/19 04:02:55;;;;;;;0.88;0.47;;;23.60;1.00;;;;;;4859746;29;20520;-43
2023/07/19 04:05:22;;;;;;;2.95;0.82;;;23.60;1.00;;;;;;4860317;29;20053;-49
2023/07/19 04:07:49;;;;;;;0.80;0.40;;;23.60;1.00;;;;;;4860178;29;20049;-47
2023/07/19 04:10:17;;;;;;;3.72;1.13;;;23.60;1.00;;;;;;4838712;29;20448;-47
2023/07/19 04:12:44;;;;;;;2.50;0.80;;;23.60;1.00;;;;;;4838458;29;20053;-43
2023/07/19 04:15:11;;;;;;;2.03;0.80;;;23.50;1.00;;;;;;4837958;29;20053;-44
2023/07/19 04:17:38;;;;;;;2.25;1.10;;;23.50;1.00;;;;;;4861250;29;20494;-44
2023/07/19 04:20:06;;;;;;;3.33;0.90;;;23.50;1.00;;;;;;4860517;29;20094;-46
2023/07/19 04:22:34;;;;;;;2.72;0.90;;;23.50;1.00;;;;;;4859024;29;20057;-48
2023/07/19 04:25:03;;;;;;;3.88;1.10;;;23.40;1.00;;;;;;4860087;29;20097;-45
2023/07/19 04:27:31;;;;;;;11.18;2.05;;;23.40;1.00;;;;;;4842717;29;20053;-43
2023/07/19 04:29:58;;;;;;;4.43;1.00;;;23.50;1.00;;;;;;4858142;29;20053;-46
2023/07/19 04:32:26;;;;;;;2.50;0.60;;;23.40;1.00;;;;;;4858715;29;20153;-46
2023/07/19 04:34:53;;;;;;;2.83;0.77;;;23.40;1.00;;;;;;4859039;29;20049;-46
2023/07/19 04:37:21;;;;;;;3.65;0.50;;;23.40;1.00;;;;;;4859508;29;20061;-43
2023/07/19 04:39:49;;;;;;;4.82;0.70;;;23.40;1.00;;;;;;4844278;29;20049;-44
2023/07/19 04:42:21;;;;;;;2.30;0.95;;;23.40;1.00;;;;;;4859501;29;20049;-45
2023/07/19 04:44:50;;;;;;;1.67;0.93;;;23.40;1.00;;;;;;4859667;29;20049;-44
2023/07/19 04:47:19;;;;;;;3.33;1.13;;;23.40;1.00;;;;;;4859067;29;20042;-44
2023/07/19 04:49:46;;;;;;;5.88;0.80;;;23.40;1.00;;;;;;4860655;29;20046;-44
2023/07/19 04:52:13;;;;;;;2.70;0.60;;;23.40;1.00;;;;;;4860519;29;20041;-43
2023/07/19 04:54:40;;;;;;;1.08;0.43;;;23.40;1.00;;;;;;4859267;29;20065;-42
2023/07/19 04:57:07;;;;;;;2.63;0.60;;;23.40;1.00;;;;;;4848971;29;20050;-43
2023/07/19 04:59:34;;;;;;;2.15;0.98;;;23.40;1.00;;;;;;4834636;29;20061;-44
2023/07/19 05:02:03;;;;;;;1.58;0.50;;;23.40;1.00;;;;;;4822620;29;20058;-43
2023/07/19 05:04:30;;;;;;;3.42;0.68;;;23.40;1.00;;;;;;4832960;29;20599;-46
2023/07/19 05:06:56;;;;;;;8.27;0.93;;;23.40;1.00;;;;;;4832382;29;20050;-45
2023/07/19 05:09:23;;;;;;;3.35;0.63;;;23.40;1.00;;;;;;4837948;29;20529;-48
2023/07/19 05:11:51;;;;;;;1.63;0.45;;;23.40;1.00;;;;;;4858888;29;20042;-48
2023/07/19 05:14:18;;;;;;;3.35;0.70;;;23.30;1.00;;;;;;4858858;29;20117;-48
2023/07/19 05:16:45;;;;;;;4.68;1.33;;;23.30;1.00;;;;;;4843797;29;20116;-49
2023/07/19 05:19:12;;;;;;;3.00;0.63;;;23.30;1.00;;;;;;4860124;29;20045;-49
2023/07/19 05:21:39;;;;;;;2.42;0.82;;;23.30;1.00;;;;;;4858874;29;20045;-48
2023/07/19 05:24:06;;;;;;;2.20;0.50;;;23.30;1.00;;;;;;4843152;29;20497;-50
2023/07/19 05:26:33;;;;;;;2.88;0.45;;;23.40;1.00;;;;;;4858720;29;20486;-49
2023/07/19 05:29:00;;;;;;;2.28;0.43;;;23.30;1.00;;;;;;4860098;29;20471;-48
2023/07/19 05:31:27;;;;;;;1.33;0.63;;;23.40;1.00;;;;;;4859954;29;20037;-48
2023/07/19 05:33:54;;;;;;;2.40;0.90;;;23.30;1.00;;;;;;4859520;29;20069;-48
2023/07/19 05:36:21;;;;;;;1.33;0.77;;;23.30;1.00;;;;;;4859890;29;20037;-48
2023/07/19 05:38:47;;;;;;;2.08;0.65;;;23.30;1.00;;;;;;4860027;29;20049;-48
2023/07/19 05:41:14;;;;;;;1.00;0.30;;;23.30;1.00;;;;;;4860037;29;20064;-49
2023/07/19 05:43:41;;;;;;;1.02;0.30;;;23.30;1.00;;;;;;4859533;29;20042;-47
2023/07/19 05:46:09;;;;;;;0.98;0.30;;;23.30;1.00;;;;;;4859605;29;20105;-47
2023/07/19 05:48:36;;;;;;;2.60;0.65;;;23.30;1.00;;;;;;4859910;29;20100;-47
2023/07/19 05:51:06;;;;;;;2.25;0.52;;;23.30;1.00;;;;;;4859772;29;20103;-46
2023/07/19 05:53:33;;;;;;;2.25;0.63;;;23.30;1.00;;;;;;4859376;29;20124;-47
2023/07/19 05:56:00;;;;;;;1.88;0.38;;;23.30;1.00;;;;;;4859508;29;20041;-48
2023/07/19 05:58:28;;;;;;;0.80;0.43;;;23.30;1.00;;;;;;4859673;29;20565;-47
2023/07/19 06:00:55;;;;;;;1.05;0.55;;;23.30;1.00;;;;;;4859417;29;20069;-48
2023/07/19 06:03:23;;;;;;;3.58;0.73;;;23.30;1.00;;;;;;4859037;29;20554;-47
2023/07/19 06:05:50;;;;;;;2.13;0.50;;;23.30;1.00;;;;;;4859475;29;20121;-49
2023/07/19 06:08:16;;;;;;;2.85;0.77;;;23.30;1.00;;;;;;4844713;29;20125;-47
2023/07/19 06:10:51;;;;;;;1.40;0.73;;;23.40;1.00;;;;;;4859667;29;20402;-61
2023/07/19 06:13:19;;;;;;;0.55;0.50;;;23.30;1.00;;;;;;4848013;29;20557;-47
2023/07/19 06:15:46;;;;;;;1.48;0.43;;;23.30;1.00;;;;;;4859419;29;20041;-47
2023/07/19 06:18:13;;;;;;;1.17;0.40;;;23.30;1.00;;;;;;4859436;29;20501;-49
2023/07/19 06:20:40;;;;;;;3.13;0.70;;;23.30;1.00;;;;;;4859237;29;20056;-49
2023/07/19 06:23:08;;;;;;;2.88;0.43;;;23.30;1.00;;;;;;4859014;29;20494;-48
2023/07/19 06:25:35;;;;;;;2.17;0.50;;;23.30;1.00;;;;;;4859419;29;20051;-48
2023/07/19 06:28:02;;;;;;;2.35;0.52;;;23.30;1.00;;;;;;4858287;29;20509;-49
2023/07/19 06:30:31;;;;;;;1.83;0.40;;;23.30;1.00;;;;;;4859704;29;20041;-50
2023/07/19 06:32:58;;;;;;;2.08;0.52;;;23.30;1.00;;;;;;4859056;29;20073;-50
2023/07/19 06:35:25;;;;;;;2.75;0.50;;;23.30;1.00;;;;;;4859893;29;20074;-53
2023/07/19 06:37:52;;;;;;;3.10;0.60;;;23.30;1.00;;;;;;4859064;29;20438;-49
2023/07/19 06:40:19;;;;;;;2.05;0.40;;;23.40;1.00;;;;;;4857874;29;20041;-48
2023/07/19 06:42:45;;;;;;;1.00;0.35;;;23.30;1.00;;;;;;4861902;29;20074;-61
2023/07/19 06:45:12;;;;;;;1.13;0.40;;;23.30;1.00;;;;;;4862977;29;20073;-52
2023/07/19 06:47:39;;;;;;;1.83;0.65;;;23.30;1.00;;;;;;4862763;29;20041;-50
2023/07/19 06:50:07;;;;;;;1.35;0.40;;;23.30;1.00;;;;;;4862849;29;20498;-51
2023/07/19 06:52:34;;;;;;;1.17;0.30;;;23.30;1.00;;;;;;4862606;29;20119;-50
2023/07/19 06:55:01;;;;;;;1.60;0.40;;;23.30;1.00;;;;;;4862770;29;20038;-50
2023/07/19 06:57:28;;;;;;;1.10;0.30;;;23.30;1.00;;;;;;4862667;29;20111;-49
2023/07/19 06:59:55;;;;;;;1.00;0.50;;;23.40;1.00;;;;;;4862722;29;20049;-49
2023/07/19 07:02:22;;;;;;;2.30;0.55;;;23.40;1.00;;;;;;4862168;29;20136;-53
2023/07/19 07:04:50;;;;;;;1.25;0.40;;;23.40;1.00;;;;;;4862480;29;20379;-47
2023/07/19 07:07:19;;;;;;;2.35;0.75;;;23.40;1.00;;;;;;4862571;29;20050;-51
2023/07/19 07:09:46;;;;;;;0.60;0.20;;;23.40;1.00;;;;;;4862733;29;20076;-50
2023/07/19 07:12:13;;;;;;;1.10;0.50;;;23.40;1.00;;;;;;4854591;29;20114;-50
2023/07/19 07:14:41;;;;;;;0.57;0.30;;;23.40;1.00;;;;;;4862283;29;20045;-51
2023/07/19 07:17:09;;;;;;;2.00;0.40;;;23.40;1.00;;;;;;4861002;29;20054;-49
2023/07/19 07:19:36;;;;;;;1.67;0.55;;;23.40;1.00;;;;;;4862557;29;20397;-49
2023/07/19 07:22:03;;;;;;;1.52;0.80;;;23.40;1.00;;;;;;4862068;29;20432;-47
2023/07/19 07:24:30;;;;;;;2.33;0.68;;;23.40;1.00;;;;;;4861806;29;20534;-49
2023/07/19 07:26:57;;;;;;;0.90;0.35;;;23.40;1.00;;;;;;4862042;29;20054;-49
2023/07/19 07:29:23;;;;;;;1.90;0.65;;;23.40;1.00;;;;;;4862159;29;20458;-47
2023/07/19 07:31:50;;;;;;;1.48;0.50;;;23.40;1.00;;;;;;4862177;29;20498;-47
2023/07/19 07:34:17;;;;;;;1.30;0.47;;;23.40;1.00;;;;;;4861545;29;20051;-47
2023/07/19 07:36:44;;;;;;;1.23;0.43;;;23.40;1.00;;;;;;4862172;29;20042;-50
2023/07/19 07:39:11;;;;;;;1.58;0.50;;;23.40;1.00;;;;;;4862010;29;20486;-47
2023/07/19 07:41:38;;;;;;;2.03;1.17;;;23.40;1.00;;;;;;4862088;29;20043;-48
2023/07/19 07:44:05;;;;;;;4.07;0.88;;;23.40;1.00;;;;;;4861458;29;20453;-47
2023/07/19 07:46:32;;;;;;;1.48;0.40;;;23.50;1.00;;;;;;4862021;29;20409;-49
2023/07/19 07:48:59;;;;;;;1.40;0.98;;;23.50;1.00;;;;;;4861774;29;20466;-47
2023/07/19 07:51:29;;;;;;;1.23;0.63;;;23.50;1.00;;;;;;4862041;29;20048;-48
2023/07/19 07:53:56;;;;;;;0.88;0.30;;;23.50;1.00;;;;;;4854150;29;20049;-48
2023/07/19 07:56:23;;;;;;;2.45;0.40;;;23.50;1.00;;;;;;4861375;29;20524;-48
2023/07/19 07:58:50;;;;;;;0.55;0.40;;;23.50;1.00;;;;;;4861547;29;20053;-50
2023/07/19 08:01:17;;;;;;;3.35;0.60;;;23.50;1.00;;;;;;4861609;29;20557;-49
2023/07/19 08:03:45;;;;;;;2.47;0.50;;;23.50;1.00;;;;;;4861209;29;20052;-48
2023/07/19 08:06:12;;;;;;;2.63;0.50;;;23.50;1.00;;;;;;4862031;29;20049;-50
2023/07/19 08:08:39;;;;;;;1.33;0.55;;;23.50;1.00;;;;;;4861922;29;20327;-49
2023/07/19 08:11:06;;;;;;;2.05;0.65;;;23.50;1.00;;;;;;4861831;29;20041;-49
2023/07/19 08:13:33;;;;;;;1.27;0.45;;;23.50;1.00;;;;;;4861841;29;20049;-49
2023/07/19 08:16:00;;;;;;;1.75;0.80;;;23.50;1.00;;;;;;4861506;29;20120;-49
2023/07/19 08:18:27;;;;;;;3.08;0.70;;;23.50;1.00;;;;;;4861590;29;20057;-52
2023/07/19 08:20:54;;;;;;;1.67;0.60;;;23.50;1.00;;;;;;4855018;29;20053;-49
2023/07/19 08:23:22;;;;;;;3.05;0.50;;;23.50;1.00;;;;;;4859161;29;20049;-48
2023/07/19 08:25:57;;;;;;;2.38;0.57;;;23.50;1.00;;;;;;4861852;29;20050;-48
2023/07/19 08:28:24;;;;;;;2.50;0.68;;;23.50;1.00;;;;;;4861541;29;20418;-48
2023/07/19 08:30:52;;;;;;;1.77;0.50;;;23.60;1.00;;;;;;4861454;29;20495;-47
2023/07/19 08:33:23;;;;;;;2.50;0.45;;;23.50;1.00;;;;;;4859109;29;20124;-47
2023/07/19 08:35:51;;;;;;;1.13;0.40;;;23.50;1.00;;;;;;4856429;29;20049;-49
2023/07/19 08:38:18;;;;;;;1.88;0.60;;;23.50;1.00;;;;;;4861501;29;20049;-48
2023/07/19 08:41:01;;;;;;;1.45;0.68;;;23.60;1.00;;;;;;4861445;29;20049;-52
2023/07/19 08:43:29;;;;;;;2.83;0.50;;;23.50;1.00;;;;;;4861095;29;20041;-49
2023/07/19 08:45:56;;;;;;;0.93;0.60;;;23.50;1.00;;;;;;4844710;29;20051;-50
2023/07/19 08:48:24;;;;;;;2.80;0.40;;;23.50;1.00;;;;;;4861256;29;20073;-48
2023/07/19 08:50:56;;;;;;;2.28;0.55;;;23.50;1.00;;;;;;4861524;29;20393;-47
2023/07/19 08:53:24;;;;;;;2.85;0.70;;;23.60;1.00;;;;;;4860509;29;20069;-49
2023/07/19 08:55:52;;;;;;;1.38;0.60;;;23.60;1.00;;;;;;4861156;29;20046;-51
2023/07/19 08:58:19;;;;;;;1.25;0.60;;;23.60;1.00;;;;;;4860565;29;20156;-47
2023/07/19 09:00:48;;;;;;;1.63;0.50;;;23.60;1.00;;;;;;4860743;29;20075;-48
2023/07/19 09:03:16;;;;;;;1.73;0.70;;;23.60;1.00;;;;;;4860307;29;20080;-48
2023/07/19 09:05:46;;;;;;;0.75;0.40;;;23.60;1.00;;;;;;4860654;29;20447;-49
2023/07/19 09:08:14;;;;;;;0.50;0.20;;;23.60;1.00;;;;;;4853491;29;20053;-49
2023/07/19 09:10:45;;;;;;;1.50;0.75;;;23.60;1.00;;;;;;4860724;29;20061;-49
2023/07/19 09:13:18;;;;;;;1.27;0.38;;;23.60;1.00;;;;;;4860286;29;20042;-51
2023/07/19 09:15:48;;;;;;;2.05;0.70;;;23.60;1.00;;;;;;4861146;29;20129;-48
2023/07/19 09:18:15;;;;;;;2.15;0.55;;;23.60;1.00;;;;;;4860841;29;20049;-50
2023/07/19 09:20:43;;;;;;;3.55;0.65;;;23.60;1.00;;;;;;4860440;29;20097;-46
2023/07/19 09:23:09;;;;;;;1.15;0.70;;;23.60;1.00;;;;;;4859950;29;20041;-47
2023/07/19 09:26:06;;;;;;;1.00;0.40;;;23.60;1.00;;;;;;4860674;29;20121;-48
2023/07/19 09:28:34;;;;;;;1.58;0.40;;;23.60;1.00;;;;;;4848583;29;20053;-47
2023/07/19 09:31:05;;;;;;;0.75;0.30;;;23.60;1.00;;;;;;4860327;29;20382;-48
2023/07/19 09:33:35;;;;;;;1.30;0.52;;;23.60;1.00;;;;;;4845019;29;20141;-49
2023/07/19 09:36:02;;;;;;;2.00;0.50;;;23.60;1.00;;;;;;4860650;29;20128;-49
2023/07/19 09:38:28;;;;;;;1.20;0.45;;;23.60;1.00;;;;;;4860238;29;20469;-51
2023/07/19 09:40:55;;;;;;;1.95;0.35;;;23.60;1.00;;;;;;4860059;29;20076;-47
2023/07/19 09:43:22;;;;;;;1.30;0.57;;;23.60;1.00;;;;;;4859622;29;20082;-51
2023/07/19 09:45:50;;;;;;;1.05;0.50;;;23.60;1.00;;;;;;4859804;29;20038;-51
2023/07/19 09:48:19;;;;;;;1.25;0.60;;;23.60;1.00;;;;;;4859868;29;20117;-49
2023/07/19 09:50:49;;;;;;;0.88;0.65;;;23.60;1.00;;;;;;4843612;29;20042;-61
2023/07/19 09:53:17;;;;;;;1.95;0.60;;;23.60;1.00;;;;;;4859497;29;20052;-50
2023/07/19 09:55:48;;;;;;;2.33;0.40;;;23.60;1.00;;;;;;4859800;29;20038;-49
2023/07/19 09:58:17;;;;;;;2.83;1.23;;;23.60;1.00;;;;;;4859894;29;20061;-49
2023/07/19 10:00:45;;;;;;;1.38;0.73;;;23.60;1.00;;;;;;4859792;29;20073;-50
2023/07/19 10:03:20;;;;;;;1.95;0.52;;;23.60;1.00;;;;;;4859291;29;20148;-49
2023/07/19 10:05:56;;;;;;;1.83;0.40;;;23.60;1.00;;;;;;4859519;29;20048;-50
2023/07/19 10:08:23;;;;;;;2.70;0.30;;;23.60;1.00;;;;;;4859416;29;20533;-47
2023/07/19 10:10:57;;;;;;;1.48;0.57;;;23.70;1.00;;;;;;4851877;29;20045;-47
2023/07/19 10:13:31;;;;;;;1.50;0.80;;;23.70;1.00;;;;;;4851323;29;20079;-47
2023/07/19 10:15:58;;;;;;;1.00;0.45;;;23.70;1.00;;;;;;4859408;29;20046;-47
2023/07/19 10:18:27;;;;;;;2.58;0.60;;;23.70;1.00;;;;;;4859188;29;20124;-51
2023/07/19 10:21:02;;;;;;;1.05;0.45;;;23.70;1.00;;;;;;4859391;29;20129;-49
2023/07/19 10:23:30;;;;;;;1.58;0.50;;;23.70;1.00;;;;;;4858778;29;20053;-53
2023/07/19 10:26:05;;;;;;;1.45;0.40;;;23.70;1.00;;;;;;4858135;29;20044;-47
2023/07/19 10:28:32;;;;;;;1.60;0.40;;;23.70;1.00;;;;;;4859560;29;20045;-52
2023/07/19 10:30:59;;;;;;;1.35;0.52;;;23.70;1.00;;;;;;4859329;29;20098;-50
2023/07/19 10:33:47;;;;;;;1.25;0.38;;;23.70;1.00;;;;;;4858920;29;20047;-50
2023/07/19 10:36:14;;;;;;;1.20;0.40;;;23.70;1.00;;;;;;4859196;29;20498;-49
2023/07/19 10:38:41;;;;;;;1.50;0.45;;;23.70;1.00;;;;;;4844475;29;20053;-47
2023/07/19 10:41:10;;;;;;;3.08;0.75;;;23.70;1.00;;;;;;4859380;29;20041;-52
2023/07/19 10:43:38;;;;;;;1.50;0.68;;;23.70;1.00;;;;;;4858747;29;20057;-52
2023/07/19 10:46:08;;;;;;;0.80;0.40;;;23.70;1.00;;;;;;4852565;29;20526;-50
2023/07/19 10:48:37;;;;;;;3.28;0.73;;;23.70;1.00;;;;;;4858543;29;20490;-52
2023/07/19 10:51:08;;;;;;;6.05;0.47;;;23.70;1.00;;;;;;4859304;29;20093;-48
2023/07/19 10:53:50;;;;;;;2.33;0.40;;;23.70;1.00;;;;;;4858747;29;20046;-51
2023/07/19 10:56:18;;;;;;;1.03;0.40;;;23.80;1.00;;;;;;4858996;29;20101;-50
2023/07/19 10:58:46;;;;;;;1.23;0.47;;;23.70;1.00;;;;;;4859221;29;20300;-51
2023/07/19 11:01:12;;;;;;;1.20;0.40;;;23.70;1.00;;;;;;4859109;29;20053;-52
2023/07/19 11:03:44;;;;;;;4.00;1.00;;;23.70;1.00;;;;;;4858712;29;20085;-53
2023/07/19 11:06:11;;;;;;;2.88;1.33;;;23.70;1.00;;;;;;4859479;29;20046;-48
2023/07/19 11:08:38;;;;;;;3.78;0.85;;;23.70;1.00;;;;;;4851529;29;20581;-50
2023/07/19 11:11:07;;;;;;;3.88;0.70;;;23.70;1.00;;;;;;4859228;29;20173;-48
2023/07/19 11:13:34;;;;;;;2.10;0.70;;;23.70;1.00;;;;;;4858889;29;20132;-50
2023/07/19 11:16:01;;;;;;;2.40;0.60;;;23.80;1.00;;;;;;4859261;29;20098;-50
2023/07/19 11:18:34;;;;;;;4.95;0.75;;;23.80;1.00;;;;;;4859110;29;20073;-51
2023/07/19 11:21:02;;;;;;;2.38;0.65;;;23.80;1.00;;;;;;4858997;29;20034;-48
2023/07/19 11:23:30;;;;;;;2.65;1.00;;;23.80;1.00;;;;;;4858097;29;20402;-47
2023/07/19 11:26:06;;;;;;;5.22;1.08;;;23.80;1.00;;;;;;4852321;29;20080;-48
2023/07/19 11:28:47;;;;;;;3.17;0.63;;;23.80;1.00;;;;;;4861589;29;20050;-52
2023/07/19 11:31:46;;;;;;;1.83;0.85;;;23.80;1.00;;;;;;4862540;29;20052;-50
2023/07/19 11:34:16;;;;;;;1.63;0.88;;;23.80;1.00;;;;;;4831138;29;20480;-49
2023/07/19 11:36:45;;;;;;;4.72;1.02;;;23.80;1.00;;;;;;4862127;29;20045;-53
2023/07/19 11:39:20;;;;;;;1.10;0.50;;;23.80;1.00;;;;;;4861980;29;20045;-47
2023/07/19 11:41:48;;;;;;;2.05;0.70;;;23.80;1.00;;;;;;4862335;29;20109;-50
2023/07/19 11:44:21;;;;;;;2.65;0.82;;;23.80;1.00;;;;;;4861639;29;20045;-47
2023/07/19 11:46:48;;;;;;;3.63;0.90;;;23.80;1.00;;;;;;4862052;29;20490;-55
2023/07/19 11:49:16;;;;;;;1.17;0.50;;;23.80;1.00;;;;;;4861999;29;20111;-47
2023/07/19 11:51:45;;;;;;;1.90;0.52;;;23.80;1.00;;;;;;4862018;29;20046;-47
2023/07/19 11:54:13;;;;;;;2.53;0.52;;;23.80;1.00;;;;;;4860528;29;20465;-47
2023/07/19 11:56:40;;;;;;;5.00;1.17;;;23.80;1.00;;;;;;4858202;29;20524;-48
2023/07/19 11:59:07;;;;;;;3.00;0.60;;;23.80;1.00;;;;;;4861805;29;20125;-51
2023/07/19 12:01:34;;;;;;;0.98;0.50;;;23.80;1.00;;;;;;4861451;29;20498;-51
2023/07/19 12:04:02;;;;;;;2.97;1.13;;;23.80;1.00;;;;;;4861456;29;20045;-47
2023/07/19 12:06:29;;;;;;;3.20;1.08;;;23.80;1.00;;;;;;4853762;29;20045;-47
2023/07/19 12:08:56;;;;;;;2.88;0.77;;;23.80;1.00;;;;;;4854030;29;20110;-47
2023/07/19 12:11:24;;;;;;;1.20;0.77;;;23.80;1.00;;;;;;4861560;29;20057;-49
2023/07/19 12:13:51;;;;;;;2.03;0.55;;;23.80;1.00;;;;;;4861120;29;20042;-53
2023/07/19 12:16:17;;;;;;;2.10;1.02;;;23.80;1.00;;;;;;4861441;29;20101;-49
2023/07/19 12:18:45;;;;;;;2.60;0.70;;;23.80;1.00;;;;;;4861225;29;20041;-49
2023/07/19 12:21:12;;;;;;;1.88;0.70;;;23.80;1.00;;;;;;4861416;29;20045;-50
2023/07/19 12:23:40;;;;;;;3.67;0.60;;;23.80;1.00;;;;;;4853256;29;20037;-49
2023/07/19 12:26:13;;;;;;;2.95;0.80;;;23.80;1.00;;;;;;4861129;29;20045;-51
2023/07/19 12:28:40;;;;;;;2.10;0.80;;;23.80;1.00;;;;;;4861015;29;20072;-47
2023/07/19 12:31:08;;;;;;;0.77;0.30;;;23.80;1.00;;;;;;4855939;29;20046;-47
2023/07/19 12:33:38;;;;;;;1.85;0.60;;;23.80;1.00;;;;;;4859130;29;20033;-48
2023/07/19 12:36:06;;;;;;;1.80;0.65;;;23.80;1.00;;;;;;4855951;29;20050;-51
2023/07/19 12:38:33;;;;;;;2.42;0.47;;;23.90;1.00;;;;;;4858530;29;20046;-50
2023/07/19 12:41:00;;;;;;;1.70;0.73;;;23.90;1.00;;;;;;4861177;29;20562;-48
2023/07/19 12:43:28;;;;;;;2.75;0.73;;;23.90;1.00;;;;;;4860601;29;20435;-49
2023/07/19 12:45:56;;;;;;;1.38;0.68;;;23.90;1.00;;;;;;4860725;29;20070;-47
2023/07/19 12:48:23;;;;;;;3.05;1.13;;;23.90;1.00;;;;;;4860867;29;20080;-51
2023/07/19 12:50:50;;;;;;;1.13;0.47;;;23.90;1.00;;;;;;4860664;29;20470;-53
2023/07/19 12:53:18;;;;;;;1.90;0.93;;;23.90;1.00;;;;;;4860425;29;20529;-50
2023/07/19 12:55:46;;;;;;;1.50;0.70;;;23.90;1.00;;;;;;4860739;29;20046;-52
2023/07/19 12:58:13;;;;;;;2.00;0.50;;;23.90;1.00;;;;;;4860940;29;20498;-48
2023/07/19 13:00:40;;;;;;;1.77;0.65;;;23.90;1.00;;;;;;4860375;29;20046;-52
2023/07/19 13:03:08;;;;;;;1.42;0.43;;;23.90;1.00;;;;;;4860240;29;20045;-50